createdAt,value
2023-05-14T00:04:54.404Z,15.90
2023-05-14T00:09:58.886Z,18.60
2023-05-14T00:15:01.790Z,16.60
2023-05-14T00:20:07.333Z,17.90
2023-05-14T00:25:10.310Z,17.80
2023-05-14T00:30:13.302Z,18.70
2023-05-14T00:35:16.390Z,19.80
2023-05-14T00:40:20.046Z,15.70
2023-05-14T00:45:23.196Z,20.00
2023-05-14T00:50:26.608Z,13.80
2023-05-14T00:55:30.974Z,13.80
2023-05-14T01:00:34.325Z,14.00
2023-05-14T01:05:56.475Z,18.60
2023-05-14T01:11:06.623Z,17.70
2023-05-14T01:16:14.364Z,14.50
2023-05-14T01:21:36.084Z,16.10
2023-05-14T01:26:38.932Z,15.50
2023-05-14T01:31:44.515Z,14.40
2023-05-14T01:36:48.915Z,13.60
2023-05-14T01:41:52.737Z,13.30
2023-05-14T01:46:55.972Z,16.80
2023-05-14T01:51:58.856Z,18.00
2023-05-14T01:57:01.669Z,14.00
2023-05-14T02:02:04.707Z,18.00
2023-05-14T02:07:07.589Z,17.30
2023-05-14T02:12:11.844Z,16.60
2023-05-14T02:17:17.706Z,21.10
2023-05-14T02:22:20.529Z,15.80
2023-05-14T02:27:23.338Z,19.60
2023-05-14T02:32:27.967Z,19.60
2023-05-14T02:37:31.539Z,19.40
2023-05-14T02:42:34.939Z,16.90
2023-05-14T02:47:38.361Z,14.90
2023-05-14T02:52:41.517Z,15.60
2023-05-14T02:57:44.409Z,14.20
2023-05-14T03:02:47.295Z,20.30
2023-05-14T03:07:53.777Z,16.30
2023-05-14T03:12:56.677Z,14.10
2023-05-14T03:17:59.570Z,17.00
2023-05-14T03:23:02.776Z,18.00
2023-05-14T03:28:05.594Z,13.70
2023-05-14T03:33:08.533Z,13.40
2023-05-14T03:38:11.367Z,12.80
2023-05-14T03:43:14.172Z,14.20
2023-05-14T03:48:17.167Z,16.30
2023-05-14T03:53:21.038Z,16.30
2023-05-14T03:58:23.870Z,15.80
2023-05-14T04:03:26.795Z,19.00
2023-05-14T04:08:29.899Z,12.20
2023-05-14T04:13:32.734Z,14.00
2023-05-14T04:18:35.936Z,13.60
2023-05-14T04:23:38.780Z,14.70
2023-05-14T04:28:41.768Z,12.30
2023-05-14T04:33:44.619Z,10.60
2023-05-14T04:38:47.384Z,10.40
2023-05-14T04:43:51.021Z,8.30
2023-05-14T04:48:53.864Z,8.90
2023-05-14T04:53:56.732Z,10.40
2023-05-14T04:58:59.568Z,8.10
2023-05-14T05:04:02.460Z,10.70
2023-05-14T05:09:05.456Z,10.40
2023-05-14T05:14:08.311Z,8.30
2023-05-14T05:19:11.291Z,8.90
2023-05-14T05:24:14.268Z,9.00
2023-05-14T05:29:17.101Z,11.80
2023-05-14T05:34:21.247Z,9.40
2023-05-14T05:39:24.084Z,10.30
2023-05-14T05:44:27.104Z,9.30
2023-05-14T05:49:39.450Z,9.50
2023-05-14T05:54:42.287Z,10.20
2023-05-14T05:59:45.127Z,13.30
2023-05-14T06:04:48.173Z,8.80
2023-05-14T06:09:51.417Z,8.80
2023-05-14T06:14:57.854Z,9.40
2023-05-14T06:20:00.841Z,10.20
2023-05-14T06:25:05.715Z,10.40
2023-05-14T06:30:09.307Z,10.30
2023-05-14T06:35:12.152Z,7.50
2023-05-14T06:40:17.918Z,9.20
2023-05-14T06:45:20.811Z,8.50
2023-05-14T06:50:24.071Z,8.90
2023-05-14T06:55:27.371Z,9.80
2023-05-14T07:00:30.674Z,7.80
2023-05-14T07:05:33.671Z,8.40
2023-05-14T07:10:36.554Z,6.60
2023-05-14T07:15:39.414Z,8.20
2023-05-14T07:20:42.398Z,6.10
2023-05-14T07:25:45.452Z,5.90
2023-05-14T07:30:48.325Z,6.80
2023-05-14T07:35:52.465Z,5.70
2023-05-14T07:40:55.414Z,6.60
2023-05-14T07:45:58.280Z,5.00
2023-05-14T07:51:01.234Z,7.00
2023-05-14T07:56:04.265Z,5.00
2023-05-14T08:01:09.241Z,6.10
2023-05-14T08:06:12.299Z,7.50
2023-05-14T08:11:15.576Z,5.80
2023-05-14T08:16:18.561Z,5.40
2023-05-14T08:21:21.690Z,4.80
2023-05-14T08:31:27.348Z,5.40
2023-05-14T08:36:30.395Z,6.20
2023-05-14T08:41:33.297Z,5.70
2023-05-14T08:46:39.250Z,4.70
2023-05-14T08:51:44.630Z,4.00
2023-05-14T08:56:48.190Z,4.20
2023-05-14T09:01:55.059Z,5.10
2023-05-14T09:07:01.619Z,6.40
2023-05-14T09:12:06.279Z,6.30
2023-05-14T09:17:09.181Z,3.40
2023-05-14T09:22:14.553Z,6.00
2023-05-14T09:27:21.439Z,9.20
2023-05-14T09:32:24.461Z,5.30
2023-05-14T09:37:28.744Z,4.00
2023-05-14T09:42:33.131Z,5.60
2023-05-14T09:47:40.149Z,4.20
2023-05-14T09:52:43.113Z,4.00
2023-05-14T09:57:46.028Z,6.50
2023-05-14T10:02:54.061Z,4.20
2023-05-14T10:08:05.722Z,4.40
2023-05-14T10:13:14.944Z,4.40
2023-05-14T10:18:25.437Z,3.70
2023-05-14T10:23:31.568Z,3.40
2023-05-14T10:28:36.940Z,5.20
2023-05-14T10:38:57.815Z,4.30
2023-05-14T10:44:12.078Z,4.70
2023-05-14T10:49:28.910Z,8.80
2023-05-14T10:54:39.518Z,4.50
2023-05-14T10:59:43.658Z,4.00
2023-05-14T11:04:59.904Z,5.00
2023-05-14T11:10:06.065Z,5.10
2023-05-14T11:15:12.465Z,4.00
2023-05-14T11:20:17.432Z,4.20
2023-05-14T11:25:23.174Z,3.70
2023-05-14T11:30:26.691Z,4.60
2023-05-14T11:35:29.708Z,7.20
2023-05-14T11:40:35.045Z,8.80
2023-05-14T11:45:39.506Z,6.10
2023-05-14T11:50:50.295Z,7.80
2023-05-14T11:55:58.832Z,6.30
2023-05-14T12:01:02.347Z,5.40
2023-05-14T12:06:08.277Z,9.10
2023-05-14T12:11:11.828Z,5.10
2023-05-14T12:16:15.002Z,6.20
2023-05-14T12:21:18.020Z,4.00
2023-05-14T12:26:25.949Z,6.20
2023-05-14T12:31:34.338Z,5.00
2023-05-14T12:36:37.559Z,4.20
2023-05-14T12:41:41.042Z,3.60
2023-05-14T12:46:45.010Z,5.90
2023-05-14T12:51:52.634Z,7.90
2023-05-14T12:57:01.482Z,11.60
2023-05-14T13:02:05.748Z,4.30
2023-05-14T13:07:10.124Z,3.40
2023-05-14T13:12:18.063Z,3.70
2023-05-14T13:17:23.579Z,6.70
2023-05-14T13:22:28.838Z,3.60
2023-05-14T13:27:32.509Z,3.90
2023-05-14T13:32:36.747Z,6.30
2023-05-14T13:37:40.354Z,3.30
2023-05-14T13:42:43.763Z,3.10
2023-05-14T13:47:48.726Z,3.40
2023-05-14T13:52:52.852Z,2.70
2023-05-14T13:57:57.452Z,4.70
2023-05-14T14:03:01.032Z,4.40
2023-05-14T14:08:17.801Z,4.00
2023-05-14T14:13:26.297Z,4.20
2023-05-14T14:18:31.487Z,3.80
2023-05-14T14:23:36.840Z,2.20
2023-05-14T14:28:41.166Z,2.90
2023-05-14T14:33:44.160Z,2.90
2023-05-14T14:38:47.167Z,3.50
2023-05-14T14:43:50.808Z,4.30
2023-05-14T14:48:56.077Z,3.20
2023-05-14T14:53:59.022Z,3.50
2023-05-14T14:59:03.573Z,4.70
2023-05-14T15:04:11.906Z,3.10
2023-05-14T15:09:15.318Z,3.70
2023-05-14T15:14:20.321Z,5.40
2023-05-14T15:24:28.442Z,4.20
2023-05-14T15:29:33.281Z,3.60
2023-05-14T15:34:36.436Z,3.20
2023-05-14T15:39:39.522Z,4.40
2023-05-14T15:44:42.767Z,3.00
2023-05-14T15:49:46.658Z,5.20
2023-05-14T15:54:50.106Z,2.20
2023-05-14T15:59:53.222Z,3.10
2023-05-14T16:05:00.772Z,4.20
2023-05-14T16:10:05.422Z,2.30
2023-05-14T16:15:11.693Z,5.30
2023-05-14T16:20:15.423Z,3.20
2023-05-14T16:25:19.305Z,3.60
2023-05-14T16:30:22.827Z,5.60
2023-05-14T16:35:27.402Z,5.10
2023-05-14T16:40:30.761Z,3.20
2023-05-14T16:45:37.954Z,5.00
2023-05-14T16:50:43.286Z,3.90
2023-05-14T16:55:47.156Z,6.90
2023-05-14T17:00:51.046Z,3.10
2023-05-14T17:05:54.848Z,3.60
2023-05-14T17:10:59.868Z,5.70
2023-05-14T17:16:02.114Z,8.60
2023-05-14T17:21:06.050Z,4.70
2023-05-14T17:26:09.034Z,4.40
2023-05-14T17:31:11.954Z,4.90
2023-05-14T17:36:15.202Z,5.00
2023-05-14T17:41:18.160Z,4.90
2023-05-14T17:46:21.847Z,3.60
2023-05-14T17:51:25.371Z,4.30
2023-05-14T17:56:28.360Z,3.80
2023-05-14T18:01:31.727Z,4.80
2023-05-14T18:06:37.947Z,6.30
2023-05-14T18:11:44.360Z,4.80
2023-05-14T18:16:47.598Z,5.50
2023-05-14T18:21:50.895Z,6.50
2023-05-14T18:26:55.207Z,7.90
2023-05-14T18:31:58.618Z,9.40
2023-05-14T18:37:02.915Z,8.80
2023-05-14T18:42:06.833Z,9.60
2023-05-14T18:47:10.047Z,9.30
2023-05-14T18:52:13.573Z,6.80
2023-05-14T18:57:17.519Z,7.20
2023-05-14T19:02:21.248Z,7.20
2023-05-14T19:07:24.871Z,7.70
2023-05-14T19:12:28.214Z,5.30
2023-05-14T19:17:33.593Z,9.10
2023-05-14T19:22:38.151Z,8.00
2023-05-14T19:27:42.413Z,6.60
2023-05-14T19:32:50.621Z,7.90
2023-05-14T19:37:54.743Z,9.40
2023-05-14T19:42:58.161Z,6.50
2023-05-14T19:48:02.932Z,8.50
2023-05-14T19:53:06.119Z,7.30
2023-05-14T19:58:13.062Z,7.50
2023-05-14T20:03:17.840Z,9.80
2023-05-14T20:08:29.131Z,6.80
2023-05-14T20:13:32.858Z,9.50
2023-05-14T20:18:36.873Z,6.60
2023-05-14T20:23:43.230Z,8.00
2023-05-14T20:28:51.440Z,12.60
2023-05-14T20:33:56.974Z,9.30
2023-05-14T20:39:09.279Z,8.90
2023-05-14T20:44:19.159Z,8.10
2023-05-14T20:49:25.132Z,8.40
2023-05-14T20:54:28.899Z,10.70
2023-05-14T20:59:32.745Z,10.90
2023-05-14T21:04:35.688Z,9.50
2023-05-14T21:09:41.602Z,10.20
2023-05-14T21:14:46.913Z,8.20
2023-05-14T21:19:51.084Z,10.30
2023-05-14T21:24:56.037Z,6.70
2023-05-14T21:29:59.307Z,6.80
2023-05-14T21:35:03.264Z,6.90
2023-05-14T21:40:15.170Z,7.20
2023-05-14T21:45:18.117Z,9.70
2023-05-14T21:50:21.097Z,8.00
2023-05-14T21:55:24.183Z,7.80
2023-05-14T22:00:28.132Z,6.90
2023-05-14T22:05:31.426Z,7.60
2023-05-14T22:10:36.469Z,10.20
2023-05-14T22:15:42.156Z,6.20
2023-05-14T22:20:45.639Z,7.40
2023-05-14T22:25:48.993Z,7.70
2023-05-14T22:30:54.402Z,8.60
2023-05-14T22:35:57.474Z,7.30
2023-05-14T22:41:00.361Z,7.80
2023-05-14T22:46:03.586Z,9.00
2023-05-14T22:51:06.359Z,7.60
2023-05-14T22:56:09.209Z,8.10
2023-05-14T23:01:12.088Z,17.20
2023-05-14T23:06:15.058Z,9.90
2023-05-14T23:11:17.836Z,6.80
2023-05-14T23:16:20.933Z,7.80
2023-05-14T23:21:23.848Z,6.50
2023-05-14T23:26:26.884Z,6.70
2023-05-14T23:31:29.757Z,8.10
2023-05-14T23:36:32.675Z,6.00
2023-05-14T23:41:35.553Z,8.50
2023-05-14T23:46:38.483Z,8.30
2023-05-14T23:51:41.370Z,8.30
2023-05-14T23:56:44.361Z,7.60
